sensor_id;sensor_type;location;lat;lon;timestamp;P1;durP1;ratioP1;P2;durP2;ratioP2
11222;SDS011;5668;52.012;8.724;2023-03-01T00:02:15;13.13;;;10.83;;
11222;SDS011;5668;52.012;8.724;2023-03-01T00:04:42;14.73;;;10.43;;
11222;SDS011;5668;52.012;8.724;2023-03-01T00:07:10;11.80;;;10.53;;
11222;SDS011;5668;52.012;8.724;2023-03-01T00:09:38;14.00;;;10.67;;
11222;SDS011;5668;52.012;8.724;2023-03-01T00:12:06;12.33;;;11.03;;
11222;SDS011;5668;52.012;8.724;2023-03-01T00:14:33;13.57;;;10.83;;
11222;SDS011;5668;52.012;8.724;2023-03-01T00:17:01;11.60;;;10.33;;
11222;SDS011;5668;52.012;8.724;2023-03-01T00:19:28;13.10;;;10.40;;
11222;SDS011;5668;52.012;8.724;2023-03-01T00:21:57;12.50;;;9.93;;
11222;SDS011;5668;52.012;8.724;2023-03-01T00:24:24;13.90;;;10.77;;
11222;SDS011;5668;52.012;8.724;2023-03-01T00:26:53;10.60;;;9.13;;
11222;SDS011;5668;52.012;8.724;2023-03-01T00:29:21;11.13;;;9.93;;
11222;SDS011;5668;52.012;8.724;2023-03-01T00:31:49;10.23;;;8.73;;
11222;SDS011;5668;52.012;8.724;2023-03-01T00:34:16;11.27;;;9.43;;
11222;SDS011;5668;52.012;8.724;2023-03-01T00:36:43;10.10;;;8.90;;
11222;SDS011;5668;52.012;8.724;2023-03-01T00:39:11;10.27;;;8.87;;
11222;SDS011;5668;52.012;8.724;2023-03-01T00:41:40;10.90;;;9.50;;
11222;SDS011;5668;52.012;8.724;2023-03-01T00:44:09;10.80;;;9.63;;
11222;SDS011;5668;52.012;8.724;2023-03-01T00:46:38;9.97;;;8.60;;
11222;SDS011;5668;52.012;8.724;2023-03-01T00:49:05;10.23;;;9.17;;
11222;SDS011;5668;52.012;8.724;2023-03-01T00:51:32;10.43;;;9.33;;
11222;SDS011;5668;52.012;8.724;2023-03-01T00:54:00;12.03;;;9.60;;
11222;SDS011;5668;52.012;8.724;2023-03-01T00:56:28;11.80;;;9.93;;
11222;SDS011;5668;52.012;8.724;2023-03-01T00:58:56;11.30;;;9.73;;
11222;SDS011;5668;52.012;8.724;2023-03-01T01:01:26;10.83;;;9.73;;
11222;SDS011;5668;52.012;8.724;2023-03-01T01:03:55;11.50;;;9.53;;
11222;SDS011;5668;52.012;8.724;2023-03-01T01:06:24;10.60;;;9.50;;
11222;SDS011;5668;52.012;8.724;2023-03-01T01:08:53;11.30;;;10.10;;
11222;SDS011;5668;52.012;8.724;2023-03-01T01:11:22;11.40;;;10.20;;
11222;SDS011;5668;52.012;8.724;2023-03-01T01:13:53;10.67;;;9.40;;
11222;SDS011;5668;52.012;8.724;2023-03-01T01:16:21;11.33;;;9.97;;
11222;SDS011;5668;52.012;8.724;2023-03-01T01:18:51;11.23;;;10.13;;
11222;SDS011;5668;52.012;8.724;2023-03-01T01:21:20;10.63;;;9.53;;
11222;SDS011;5668;52.012;8.724;2023-03-01T01:23:49;12.23;;;9.87;;
11222;SDS011;5668;52.012;8.724;2023-03-01T01:26:17;11.07;;;9.90;;
11222;SDS011;5668;52.012;8.724;2023-03-01T01:28:46;11.07;;;9.97;;
11222;SDS011;5668;52.012;8.724;2023-03-01T01:31:14;11.13;;;9.90;;
11222;SDS011;5668;52.012;8.724;2023-03-01T01:33:41;11.43;;;10.07;;
11222;SDS011;5668;52.012;8.724;2023-03-01T01:36:10;12.83;;;9.93;;
11222;SDS011;5668;52.012;8.724;2023-03-01T01:38:38;11.33;;;10.13;;
11222;SDS011;5668;52.012;8.724;2023-03-01T01:41:07;12.10;;;10.23;;
11222;SDS011;5668;52.012;8.724;2023-03-01T01:43:37;13.57;;;10.37;;
11222;SDS011;5668;52.012;8.724;2023-03-01T01:46:07;11.73;;;9.73;;
11222;SDS011;5668;52.012;8.724;2023-03-01T01:48:46;11.30;;;9.90;;
11222;SDS011;5668;52.012;8.724;2023-03-01T01:51:21;10.97;;;9.87;;
11222;SDS011;5668;52.012;8.724;2023-03-01T01:53:53;12.00;;;9.73;;
11222;SDS011;5668;52.012;8.724;2023-03-01T01:56:26;13.87;;;10.70;;
11222;SDS011;5668;52.012;8.724;2023-03-01T01:58:54;13.20;;;10.07;;
11222;SDS011;5668;52.012;8.724;2023-03-01T02:01:22;12.80;;;10.00;;
11222;SDS011;5668;52.012;8.724;2023-03-01T02:03:50;11.70;;;9.83;;
11222;SDS011;5668;52.012;8.724;2023-03-01T02:06:21;13.90;;;10.60;;
11222;SDS011;5668;52.012;8.724;2023-03-01T02:08:59;13.50;;;10.40;;
11222;SDS011;5668;52.012;8.724;2023-03-01T02:11:29;12.43;;;10.37;;
11222;SDS011;5668;52.012;8.724;2023-03-01T02:13:58;11.37;;;10.17;;
11222;SDS011;5668;52.012;8.724;2023-03-01T02:16:26;13.63;;;10.97;;
11222;SDS011;5668;52.012;8.724;2023-03-01T02:18:54;11.87;;;10.43;;
11222;SDS011;5668;52.012;8.724;2023-03-01T02:21:27;11.43;;;10.13;;
11222;SDS011;5668;52.012;8.724;2023-03-01T02:24:04;11.43;;;9.53;;
11222;SDS011;5668;52.012;8.724;2023-03-01T02:26:39;12.23;;;9.93;;
11222;SDS011;5668;52.012;8.724;2023-03-01T02:29:12;12.10;;;9.93;;
11222;SDS011;5668;52.012;8.724;2023-03-01T02:31:39;11.03;;;9.70;;
11222;SDS011;5668;52.012;8.724;2023-03-01T02:34:09;11.83;;;9.97;;
11222;SDS011;5668;52.012;8.724;2023-03-01T02:36:39;10.97;;;9.83;;
11222;SDS011;5668;52.012;8.724;2023-03-01T02:39:11;10.50;;;9.40;;
11222;SDS011;5668;52.012;8.724;2023-03-01T02:41:43;10.93;;;9.40;;
11222;SDS011;5668;52.012;8.724;2023-03-01T02:44:14;12.23;;;10.13;;
11222;SDS011;5668;52.012;8.724;2023-03-01T02:46:42;11.47;;;9.93;;
11222;SDS011;5668;52.012;8.724;2023-03-01T02:49:18;12.03;;;10.07;;
11222;SDS011;5668;52.012;8.724;2023-03-01T02:51:50;10.83;;;9.73;;
11222;SDS011;5668;52.012;8.724;2023-03-01T02:54:31;12.70;;;9.97;;
11222;SDS011;5668;52.012;8.724;2023-03-01T02:57:06;12.47;;;10.33;;
11222;SDS011;5668;52.012;8.724;2023-03-01T02:59:36;11.83;;;9.90;;
11222;SDS011;5668;52.012;8.724;2023-03-01T03:02:05;13.97;;;9.53;;
11222;SDS011;5668;52.012;8.724;2023-03-01T03:04:33;11.40;;;10.13;;
11222;SDS011;5668;52.012;8.724;2023-03-01T03:07:00;11.93;;;10.23;;
11222;SDS011;5668;52.012;8.724;2023-03-01T03:09:27;10.70;;;9.60;;
11222;SDS011;5668;52.012;8.724;2023-03-01T03:11:54;11.57;;;10.07;;
11222;SDS011;5668;52.012;8.724;2023-03-01T03:14:22;10.53;;;9.43;;
11222;SDS011;5668;52.012;8.724;2023-03-01T03:16:50;11.70;;;9.80;;
11222;SDS011;5668;52.012;8.724;2023-03-01T03:19:18;11.47;;;9.73;;
11222;SDS011;5668;52.012;8.724;2023-03-01T03:21:46;10.83;;;9.70;;
11222;SDS011;5668;52.012;8.724;2023-03-01T03:24:14;10.77;;;9.67;;
11222;SDS011;5668;52.012;8.724;2023-03-01T03:26:42;10.93;;;9.83;;
11222;SDS011;5668;52.012;8.724;2023-03-01T03:29:09;12.33;;;10.73;;
11222;SDS011;5668;52.012;8.724;2023-03-01T03:31:36;11.97;;;10.17;;
11222;SDS011;5668;52.012;8.724;2023-03-01T03:34:05;13.13;;;10.60;;
11222;SDS011;5668;52.012;8.724;2023-03-01T03:36:32;11.17;;;10.00;;
11222;SDS011;5668;52.012;8.724;2023-03-01T03:38:59;11.30;;;10.17;;
11222;SDS011;5668;52.012;8.724;2023-03-01T03:41:26;14.00;;;10.00;;
11222;SDS011;5668;52.012;8.724;2023-03-01T03:43:54;10.67;;;9.53;;
11222;SDS011;5668;52.012;8.724;2023-03-01T03:46:21;12.07;;;9.80;;
11222;SDS011;5668;52.012;8.724;2023-03-01T03:48:48;11.00;;;9.90;;
11222;SDS011;5668;52.012;8.724;2023-03-01T03:51:17;12.67;;;10.17;;
11222;SDS011;5668;52.012;8.724;2023-03-01T03:53:44;10.33;;;9.27;;
11222;SDS011;5668;52.012;8.724;2023-03-01T03:56:12;11.00;;;9.90;;
11222;SDS011;5668;52.012;8.724;2023-03-01T03:58:39;13.37;;;10.53;;
11222;SDS011;5668;52.012;8.724;2023-03-01T04:01:06;11.30;;;10.10;;
11222;SDS011;5668;52.012;8.724;2023-03-01T04:03:33;11.30;;;9.97;;
11222;SDS011;5668;52.012;8.724;2023-03-01T04:06:01;10.67;;;9.57;;
11222;SDS011;5668;52.012;8.724;2023-03-01T04:08:31;11.10;;;9.87;;
11222;SDS011;5668;52.012;8.724;2023-03-01T04:10:59;12.27;;;10.27;;
11222;SDS011;5668;52.012;8.724;2023-03-01T04:13:49;10.93;;;9.50;;
11222;SDS011;5668;52.012;8.724;2023-03-01T04:16:17;11.63;;;9.83;;
11222;SDS011;5668;52.012;8.724;2023-03-01T04:18:44;10.30;;;9.20;;
11222;SDS011;5668;52.012;8.724;2023-03-01T04:21:12;11.77;;;9.73;;
11222;SDS011;5668;52.012;8.724;2023-03-01T04:23:40;10.67;;;9.37;;
11222;SDS011;5668;52.012;8.724;2023-03-01T04:26:08;10.47;;;9.00;;
11222;SDS011;5668;52.012;8.724;2023-03-01T04:28:36;10.80;;;9.13;;
11222;SDS011;5668;52.012;8.724;2023-03-01T04:31:06;11.50;;;9.33;;
11222;SDS011;5668;52.012;8.724;2023-03-01T04:33:38;11.63;;;9.20;;
11222;SDS011;5668;52.012;8.724;2023-03-01T04:36:07;11.00;;;9.27;;
11222;SDS011;5668;52.012;8.724;2023-03-01T04:38:35;10.20;;;8.97;;
11222;SDS011;5668;52.012;8.724;2023-03-01T04:41:05;11.37;;;8.67;;
11222;SDS011;5668;52.012;8.724;2023-03-01T04:43:34;11.10;;;8.87;;
11222;SDS011;5668;52.012;8.724;2023-03-01T04:46:03;11.70;;;9.53;;
11222;SDS011;5668;52.012;8.724;2023-03-01T04:48:33;11.10;;;9.30;;
11222;SDS011;5668;52.012;8.724;2023-03-01T04:51:01;11.40;;;9.00;;
11222;SDS011;5668;52.012;8.724;2023-03-01T04:53:29;10.33;;;9.23;;
11222;SDS011;5668;52.012;8.724;2023-03-01T04:55:57;10.63;;;9.50;;
11222;SDS011;5668;52.012;8.724;2023-03-01T04:58:26;10.27;;;9.00;;
11222;SDS011;5668;52.012;8.724;2023-03-01T05:00:54;11.23;;;8.57;;
11222;SDS011;5668;52.012;8.724;2023-03-01T05:03:21;10.27;;;8.57;;
11222;SDS011;5668;52.012;8.724;2023-03-01T05:05:49;11.17;;;9.23;;
11222;SDS011;5668;52.012;8.724;2023-03-01T05:08:18;10.83;;;8.60;;
11222;SDS011;5668;52.012;8.724;2023-03-01T05:10:46;9.73;;;8.67;;
11222;SDS011;5668;52.012;8.724;2023-03-01T05:13:15;10.50;;;8.80;;
11222;SDS011;5668;52.012;8.724;2023-03-01T05:15:48;10.70;;;8.90;;
11222;SDS011;5668;52.012;8.724;2023-03-01T05:18:19;10.10;;;8.40;;
11222;SDS011;5668;52.012;8.724;2023-03-01T05:20:51;10.03;;;8.83;;
11222;SDS011;5668;52.012;8.724;2023-03-01T05:23:21;11.80;;;9.17;;
11222;SDS011;5668;52.012;8.724;2023-03-01T05:25:48;10.87;;;8.50;;
11222;SDS011;5668;52.012;8.724;2023-03-01T05:28:17;11.80;;;8.97;;
11222;SDS011;5668;52.012;8.724;2023-03-01T05:30:45;10.13;;;8.73;;
11222;SDS011;5668;52.012;8.724;2023-03-01T05:33:16;9.73;;;8.70;;
11222;SDS011;5668;52.012;8.724;2023-03-01T05:35:44;11.43;;;9.50;;
11222;SDS011;5668;52.012;8.724;2023-03-01T05:38:13;10.57;;;9.23;;
11222;SDS011;5668;52.012;8.724;2023-03-01T05:40:42;11.13;;;8.90;;
11222;SDS011;5668;52.012;8.724;2023-03-01T05:43:10;11.30;;;9.17;;
11222;SDS011;5668;52.012;8.724;2023-03-01T05:45:39;10.40;;;9.00;;
11222;SDS011;5668;52.012;8.724;2023-03-01T05:48:09;9.10;;;8.20;;
11222;SDS011;5668;52.012;8.724;2023-03-01T05:50:38;9.23;;;8.20;;
11222;SDS011;5668;52.012;8.724;2023-03-01T05:53:07;9.17;;;7.90;;
11222;SDS011;5668;52.012;8.724;2023-03-01T05:55:37;13.27;;;8.80;;
11222;SDS011;5668;52.012;8.724;2023-03-01T05:58:06;9.37;;;8.30;;
11222;SDS011;5668;52.012;8.724;2023-03-01T06:00:35;11.67;;;8.43;;
11222;SDS011;5668;52.012;8.724;2023-03-01T06:03:02;13.63;;;8.17;;
11222;SDS011;5668;52.012;8.724;2023-03-01T06:05:31;9.07;;;7.83;;
11222;SDS011;5668;52.012;8.724;2023-03-01T06:07:58;9.17;;;8.27;;
11222;SDS011;5668;52.012;8.724;2023-03-01T06:10:26;9.23;;;8.13;;
11222;SDS011;5668;52.012;8.724;2023-03-01T06:12:54;9.60;;;7.57;;
11222;SDS011;5668;52.012;8.724;2023-03-01T06:15:22;10.27;;;8.00;;
11222;SDS011;5668;52.012;8.724;2023-03-01T06:17:50;10.53;;;9.03;;
11222;SDS011;5668;52.012;8.724;2023-03-01T06:20:21;14.00;;;11.03;;
11222;SDS011;5668;52.012;8.724;2023-03-01T06:22:51;19.67;;;12.63;;
11222;SDS011;5668;52.012;8.724;2023-03-01T06:25:19;24.03;;;16.23;;
11222;SDS011;5668;52.012;8.724;2023-03-01T06:27:48;36.30;;;20.20;;
11222;SDS011;5668;52.012;8.724;2023-03-01T06:30:17;41.13;;;22.73;;
11222;SDS011;5668;52.012;8.724;2023-03-01T06:32:46;73.97;;;39.80;;
11222;SDS011;5668;52.012;8.724;2023-03-01T06:35:14;57.70;;;31.03;;
11222;SDS011;5668;52.012;8.724;2023-03-01T06:37:43;43.87;;;25.03;;
11222;SDS011;5668;52.012;8.724;2023-03-01T06:40:13;39.23;;;23.93;;
11222;SDS011;5668;52.012;8.724;2023-03-01T06:42:42;37.83;;;22.40;;
11222;SDS011;5668;52.012;8.724;2023-03-01T06:45:15;27.53;;;20.00;;
11222;SDS011;5668;52.012;8.724;2023-03-01T06:47:42;28.77;;;17.60;;
11222;SDS011;5668;52.012;8.724;2023-03-01T06:50:10;21.23;;;15.60;;
11222;SDS011;5668;52.012;8.724;2023-03-01T06:52:39;17.20;;;12.73;;
11222;SDS011;5668;52.012;8.724;2023-03-01T06:55:06;16.30;;;12.80;;
11222;SDS011;5668;52.012;8.724;2023-03-01T06:57:35;15.80;;;11.90;;
11222;SDS011;5668;52.012;8.724;2023-03-01T07:00:03;13.60;;;11.10;;
11222;SDS011;5668;52.012;8.724;2023-03-01T07:02:32;14.90;;;10.00;;
11222;SDS011;5668;52.012;8.724;2023-03-01T07:04:59;12.93;;;9.70;;
11222;SDS011;5668;52.012;8.724;2023-03-01T07:07:26;11.23;;;9.10;;
11222;SDS011;5668;52.012;8.724;2023-03-01T07:09:53;14.30;;;10.57;;
11222;SDS011;5668;52.012;8.724;2023-03-01T07:12:20;11.87;;;9.53;;
11222;SDS011;5668;52.012;8.724;2023-03-01T07:14:49;10.20;;;8.80;;
11222;SDS011;5668;52.012;8.724;2023-03-01T07:17:16;11.37;;;8.80;;
11222;SDS011;5668;52.012;8.724;2023-03-01T07:19:43;12.27;;;9.40;;
11222;SDS011;5668;52.012;8.724;2023-03-01T07:22:11;10.40;;;9.13;;
11222;SDS011;5668;52.012;8.724;2023-03-01T07:24:38;12.47;;;9.60;;
11222;SDS011;5668;52.012;8.724;2023-03-01T07:27:06;10.00;;;8.57;;
11222;SDS011;5668;52.012;8.724;2023-03-01T07:29:33;9.97;;;8.53;;
11222;SDS011;5668;52.012;8.724;2023-03-01T07:32:03;10.23;;;9.10;;
11222;SDS011;5668;52.012;8.724;2023-03-01T07:34:30;12.80;;;9.07;;
11222;SDS011;5668;52.012;8.724;2023-03-01T07:36:58;12.27;;;9.73;;
11222;SDS011;5668;52.012;8.724;2023-03-01T07:39:25;11.13;;;9.93;;
11222;SDS011;5668;52.012;8.724;2023-03-01T07:41:52;11.87;;;10.10;;
11222;SDS011;5668;52.012;8.724;2023-03-01T07:44:19;12.83;;;9.77;;
11222;SDS011;5668;52.012;8.724;2023-03-01T07:46:46;11.80;;;10.10;;
11222;SDS011;5668;52.012;8.724;2023-03-01T07:49:15;11.80;;;9.80;;
11222;SDS011;5668;52.012;8.724;2023-03-01T07:51:42;12.70;;;10.27;;
11222;SDS011;5668;52.012;8.724;2023-03-01T07:54:10;11.73;;;10.53;;
11222;SDS011;5668;52.012;8.724;2023-03-01T07:56:37;11.63;;;10.43;;
11222;SDS011;5668;52.012;8.724;2023-03-01T07:59:05;10.83;;;9.73;;
11222;SDS011;5668;52.012;8.724;2023-03-01T08:01:32;12.07;;;10.30;;
11222;SDS011;5668;52.012;8.724;2023-03-01T08:04:00;11.93;;;10.30;;
11222;SDS011;5668;52.012;8.724;2023-03-01T08:06:29;11.87;;;10.57;;
11222;SDS011;5668;52.012;8.724;2023-03-01T08:08:56;11.40;;;10.20;;
11222;SDS011;5668;52.012;8.724;2023-03-01T08:11:23;12.63;;;10.63;;
11222;SDS011;5668;52.012;8.724;2023-03-01T08:13:53;11.80;;;10.60;;
11222;SDS011;5668;52.012;8.724;2023-03-01T08:16:21;12.53;;;10.47;;
11222;SDS011;5668;52.012;8.724;2023-03-01T08:18:48;12.07;;;10.77;;
11222;SDS011;5668;52.012;8.724;2023-03-01T08:21:16;12.07;;;10.77;;
11222;SDS011;5668;52.012;8.724;2023-03-01T08:23:45;12.37;;;10.87;;
11222;SDS011;5668;52.012;8.724;2023-03-01T08:26:13;12.90;;;10.77;;
11222;SDS011;5668;52.012;8.724;2023-03-01T08:28:43;12.43;;;10.63;;
11222;SDS011;5668;52.012;8.724;2023-03-01T08:31:14;13.87;;;11.17;;
11222;SDS011;5668;52.012;8.724;2023-03-01T08:33:43;12.87;;;11.37;;
11222;SDS011;5668;52.012;8.724;2023-03-01T08:36:15;15.83;;;11.67;;
11222;SDS011;5668;52.012;8.724;2023-03-01T08:38:43;14.20;;;11.13;;
11222;SDS011;5668;52.012;8.724;2023-03-01T08:41:11;15.67;;;11.53;;
11222;SDS011;5668;52.012;8.724;2023-03-01T08:43:39;12.23;;;10.93;;
11222;SDS011;5668;52.012;8.724;2023-03-01T08:46:06;13.10;;;11.13;;
11222;SDS011;5668;52.012;8.724;2023-03-01T08:48:34;12.67;;;10.77;;
11222;SDS011;5668;52.012;8.724;2023-03-01T08:51:06;12.00;;;10.80;;
11222;SDS011;5668;52.012;8.724;2023-03-01T08:53:34;12.00;;;10.70;;
11222;SDS011;5668;52.012;8.724;2023-03-01T08:56:03;11.90;;;10.70;;
11222;SDS011;5668;52.012;8.724;2023-03-01T08:58:31;12.47;;;10.67;;
11222;SDS011;5668;52.012;8.724;2023-03-01T09:00:58;12.70;;;11.43;;
11222;SDS011;5668;52.012;8.724;2023-03-01T09:03:25;12.90;;;11.60;;
11222;SDS011;5668;52.012;8.724;2023-03-01T09:05:53;12.90;;;11.10;;
11222;SDS011;5668;52.012;8.724;2023-03-01T09:08:26;13.00;;;11.30;;
11222;SDS011;5668;52.012;8.724;2023-03-01T09:10:54;14.93;;;10.80;;
11222;SDS011;5668;52.012;8.724;2023-03-01T09:13:22;11.17;;;9.97;;
11222;SDS011;5668;52.012;8.724;2023-03-01T09:15:50;11.60;;;10.27;;
11222;SDS011;5668;52.012;8.724;2023-03-01T09:18:17;12.73;;;10.63;;
11222;SDS011;5668;52.012;8.724;2023-03-01T09:20:45;12.77;;;10.20;;
11222;SDS011;5668;52.012;8.724;2023-03-01T09:23:12;13.43;;;10.90;;
11222;SDS011;5668;52.012;8.724;2023-03-01T09:25:39;11.77;;;9.70;;
11222;SDS011;5668;52.012;8.724;2023-03-01T09:28:06;12.63;;;9.83;;
11222;SDS011;5668;52.012;8.724;2023-03-01T09:30:37;10.93;;;9.80;;
11222;SDS011;5668;52.012;8.724;2023-03-01T09:33:04;12.67;;;10.47;;
11222;SDS011;5668;52.012;8.724;2023-03-01T09:35:31;10.93;;;9.80;;
11222;SDS011;5668;52.012;8.724;2023-03-01T09:37:58;10.97;;;9.60;;
11222;SDS011;5668;52.012;8.724;2023-03-01T09:40:26;11.73;;;10.20;;
11222;SDS011;5668;52.012;8.724;2023-03-01T09:42:56;12.93;;;10.20;;
11222;SDS011;5668;52.012;8.724;2023-03-01T09:45:33;15.57;;;10.53;;
11222;SDS011;5668;52.012;8.724;2023-03-01T09:48:03;14.03;;;10.00;;
11222;SDS011;5668;52.012;8.724;2023-03-01T09:50:35;12.83;;;10.47;;
11222;SDS011;5668;52.012;8.724;2023-03-01T09:53:06;10.63;;;9.50;;
11222;SDS011;5668;52.012;8.724;2023-03-01T09:55:39;14.27;;;10.80;;
11222;SDS011;5668;52.012;8.724;2023-03-01T09:58:27;12.23;;;9.87;;
11222;SDS011;5668;52.012;8.724;2023-03-01T10:01:06;11.03;;;9.23;;
11222;SDS011;5668;52.012;8.724;2023-03-01T10:03:57;11.57;;;9.13;;
11222;SDS011;5668;52.012;8.724;2023-03-01T10:06:37;9.93;;;8.90;;
11222;SDS011;5668;52.012;8.724;2023-03-01T10:09:10;11.40;;;9.47;;
11222;SDS011;5668;52.012;8.724;2023-03-01T10:11:41;12.37;;;9.60;;
11222;SDS011;5668;52.012;8.724;2023-03-01T10:14:15;13.03;;;9.40;;
11222;SDS011;5668;52.012;8.724;2023-03-01T10:16:50;12.70;;;9.40;;
11222;SDS011;5668;52.012;8.724;2023-03-01T10:19:25;11.07;;;9.57;;
11222;SDS011;5668;52.012;8.724;2023-03-01T10:21:57;12.30;;;9.13;;
11222;SDS011;5668;52.012;8.724;2023-03-01T10:24:29;11.03;;;8.60;;
11222;SDS011;5668;52.012;8.724;2023-03-01T10:27:02;9.90;;;8.20;;
11222;SDS011;5668;52.012;8.724;2023-03-01T10:29:34;9.40;;;8.03;;
11222;SDS011;5668;52.012;8.724;2023-03-01T10:32:08;13.10;;;8.00;;
11222;SDS011;5668;52.012;8.724;2023-03-01T10:34:38;10.67;;;7.87;;
11222;SDS011;5668;52.012;8.724;2023-03-01T10:37:09;9.53;;;7.13;;
11222;SDS011;5668;52.012;8.724;2023-03-01T10:39:53;7.23;;;6.27;;
11222;SDS011;5668;52.012;8.724;2023-03-01T10:42:25;8.23;;;5.70;;
11222;SDS011;5668;52.012;8.724;2023-03-01T10:44:57;6.43;;;5.50;;
11222;SDS011;5668;52.012;8.724;2023-03-01T10:47:40;5.70;;;5.10;;
11222;SDS011;5668;52.012;8.724;2023-03-01T10:50:17;8.93;;;5.50;;
11222;SDS011;5668;52.012;8.724;2023-03-01T10:52:55;6.77;;;5.20;;
11222;SDS011;5668;52.012;8.724;2023-03-01T10:55:26;6.13;;;5.17;;
11222;SDS011;5668;52.012;8.724;2023-03-01T10:58:07;6.93;;;5.73;;
11222;SDS011;5668;52.012;8.724;2023-03-01T11:00:48;6.37;;;5.17;;
11222;SDS011;5668;52.012;8.724;2023-03-01T11:03:18;8.93;;;5.43;;
11222;SDS011;5668;52.012;8.724;2023-03-01T11:05:54;7.73;;;4.90;;
11222;SDS011;5668;52.012;8.724;2023-03-01T11:08:31;6.70;;;4.97;;
11222;SDS011;5668;52.012;8.724;2023-03-01T11:11:04;7.10;;;5.13;;
11222;SDS011;5668;52.012;8.724;2023-03-01T11:13:38;6.83;;;4.97;;
11222;SDS011;5668;52.012;8.724;2023-03-01T11:16:23;5.33;;;4.70;;
11222;SDS011;5668;52.012;8.724;2023-03-01T11:19:07;5.67;;;4.50;;
11222;SDS011;5668;52.012;8.724;2023-03-01T11:21:43;5.53;;;4.80;;
11222;SDS011;5668;52.012;8.724;2023-03-01T11:24:17;5.70;;;4.10;;
11222;SDS011;5668;52.012;8.724;2023-03-01T11:26:47;6.30;;;4.40;;
11222;SDS011;5668;52.012;8.724;2023-03-01T11:29:18;6.63;;;4.37;;
11222;SDS011;5668;52.012;8.724;2023-03-01T11:31:54;6.83;;;4.77;;
11222;SDS011;5668;52.012;8.724;2023-03-01T11:34:37;5.43;;;4.47;;
11222;SDS011;5668;52.012;8.724;2023-03-01T11:37:12;5.53;;;4.47;;
11222;SDS011;5668;52.012;8.724;2023-03-01T11:39:51;6.37;;;4.70;;
11222;SDS011;5668;52.012;8.724;2023-03-01T11:42:25;6.57;;;4.70;;
11222;SDS011;5668;52.012;8.724;2023-03-01T11:45:02;4.90;;;4.17;;
11222;SDS011;5668;52.012;8.724;2023-03-01T11:47:39;4.97;;;4.47;;
11222;SDS011;5668;52.012;8.724;2023-03-01T11:50:25;5.93;;;4.97;;
11222;SDS011;5668;52.012;8.724;2023-03-01T11:53:05;7.20;;;4.80;;
11222;SDS011;5668;52.012;8.724;2023-03-01T11:56:09;5.80;;;4.13;;
11222;SDS011;5668;52.012;8.724;2023-03-01T12:01:43;8.53;;;4.77;;
11222;SDS011;5668;52.012;8.724;2023-03-01T12:04:29;6.60;;;4.57;;
11222;SDS011;5668;52.012;8.724;2023-03-01T12:07:16;5.90;;;4.67;;
11222;SDS011;5668;52.012;8.724;2023-03-01T12:09:52;4.83;;;4.33;;
11222;SDS011;5668;52.012;8.724;2023-03-01T12:12:30;5.67;;;4.70;;
11222;SDS011;5668;52.012;8.724;2023-03-01T12:18:13;5.13;;;4.40;;
11222;SDS011;5668;52.012;8.724;2023-03-01T12:21:13;5.30;;;4.70;;
11222;SDS011;5668;52.012;8.724;2023-03-01T12:23:50;5.33;;;4.57;;
11222;SDS011;5668;52.012;8.724;2023-03-01T12:26:42;5.83;;;4.70;;
11222;SDS011;5668;52.012;8.724;2023-03-01T12:29:25;5.63;;;4.20;;
11222;SDS011;5668;52.012;8.724;2023-03-01T12:32:01;5.27;;;4.53;;
11222;SDS011;5668;52.012;8.724;2023-03-01T12:34:58;6.77;;;4.57;;
11222;SDS011;5668;52.012;8.724;2023-03-01T12:37:40;5.30;;;4.20;;
11222;SDS011;5668;52.012;8.724;2023-03-01T12:40:24;6.97;;;4.47;;
11222;SDS011;5668;52.012;8.724;2023-03-01T12:43:14;6.10;;;3.80;;
11222;SDS011;5668;52.012;8.724;2023-03-01T12:45:50;5.53;;;4.23;;
11222;SDS011;5668;52.012;8.724;2023-03-01T12:48:36;4.63;;;4.13;;
11222;SDS011;5668;52.012;8.724;2023-03-01T12:51:14;6.53;;;4.40;;
11222;SDS011;5668;52.012;8.724;2023-03-01T12:53:46;5.60;;;3.80;;
11222;SDS011;5668;52.012;8.724;2023-03-01T12:56:15;5.77;;;4.33;;
11222;SDS011;5668;52.012;8.724;2023-03-01T12:58:49;4.70;;;4.00;;
11222;SDS011;5668;52.012;8.724;2023-03-01T13:01:27;4.90;;;3.73;;
11222;SDS011;5668;52.012;8.724;2023-03-01T13:04:07;5.50;;;3.83;;
11222;SDS011;5668;52.012;8.724;2023-03-01T13:06:50;5.10;;;3.97;;
11222;SDS011;5668;52.012;8.724;2023-03-01T13:09:28;4.90;;;3.97;;
11222;SDS011;5668;52.012;8.724;2023-03-01T13:12:01;5.67;;;3.80;;
11222;SDS011;5668;52.012;8.724;2023-03-01T13:14:36;6.17;;;3.67;;
11222;SDS011;5668;52.012;8.724;2023-03-01T13:20:15;4.73;;;3.30;;
11222;SDS011;5668;52.012;8.724;2023-03-01T13:22:45;5.63;;;3.50;;
11222;SDS011;5668;52.012;8.724;2023-03-01T13:25:15;4.60;;;3.63;;
11222;SDS011;5668;52.012;8.724;2023-03-01T13:27:45;4.10;;;3.37;;
11222;SDS011;5668;52.012;8.724;2023-03-01T13:39:27;4.00;;;3.37;;
11222;SDS011;5668;52.012;8.724;2023-03-01T13:41:58;3.43;;;3.07;;
11222;SDS011;5668;52.012;8.724;2023-03-01T13:44:29;4.07;;;3.63;;
11222;SDS011;5668;52.012;8.724;2023-03-01T13:47:03;3.90;;;2.97;;
11222;SDS011;5668;52.012;8.724;2023-03-01T13:49:43;4.43;;;4.00;;
11222;SDS011;5668;52.012;8.724;2023-03-01T13:52:27;4.17;;;3.30;;
11222;SDS011;5668;52.012;8.724;2023-03-01T13:55:03;4.00;;;3.33;;
11222;SDS011;5668;52.012;8.724;2023-03-01T13:57:33;4.10;;;3.40;;
11222;SDS011;5668;52.012;8.724;2023-03-01T14:00:04;4.07;;;3.50;;
11222;SDS011;5668;52.012;8.724;2023-03-01T14:02:35;4.23;;;3.17;;
11222;SDS011;5668;52.012;8.724;2023-03-01T14:05:02;4.97;;;3.63;;
11222;SDS011;5668;52.012;8.724;2023-03-01T14:07:36;4.13;;;3.73;;
11222;SDS011;5668;52.012;8.724;2023-03-01T14:10:06;4.30;;;3.53;;
11222;SDS011;5668;52.012;8.724;2023-03-01T14:12:39;4.37;;;3.37;;
11222;SDS011;5668;52.012;8.724;2023-03-01T14:15:17;3.87;;;3.40;;
11222;SDS011;5668;52.012;8.724;2023-03-01T14:17:54;4.10;;;3.70;;
11222;SDS011;5668;52.012;8.724;2023-03-01T14:20:26;4.13;;;3.30;;
11222;SDS011;5668;52.012;8.724;2023-03-01T14:22:56;4.70;;;3.43;;
11222;SDS011;5668;52.012;8.724;2023-03-01T14:25:26;5.00;;;3.53;;
11222;SDS011;5668;52.012;8.724;2023-03-01T14:27:55;5.40;;;3.27;;
11222;SDS011;5668;52.012;8.724;2023-03-01T14:30:30;4.10;;;3.50;;
11222;SDS011;5668;52.012;8.724;2023-03-01T14:33:03;3.93;;;3.43;;
11222;SDS011;5668;52.012;8.724;2023-03-01T14:35:32;4.63;;;3.90;;
11222;SDS011;5668;52.012;8.724;2023-03-01T14:38:01;6.07;;;3.73;;
11222;SDS011;5668;52.012;8.724;2023-03-01T14:40:29;4.17;;;3.17;;
11222;SDS011;5668;52.012;8.724;2023-03-01T14:43:00;4.30;;;3.53;;
11222;SDS011;5668;52.012;8.724;2023-03-01T14:45:34;4.90;;;3.50;;
11222;SDS011;5668;52.012;8.724;2023-03-01T14:48:03;3.60;;;3.13;;
11222;SDS011;5668;52.012;8.724;2023-03-01T14:50:33;3.50;;;3.20;;
11222;SDS011;5668;52.012;8.724;2023-03-01T14:53:06;3.87;;;3.20;;
11222;SDS011;5668;52.012;8.724;2023-03-01T14:55:42;3.27;;;2.97;;
11222;SDS011;5668;52.012;8.724;2023-03-01T14:58:14;5.13;;;3.50;;
11222;SDS011;5668;52.012;8.724;2023-03-01T15:00:46;4.83;;;3.33;;
11222;SDS011;5668;52.012;8.724;2023-03-01T15:03:19;6.33;;;3.60;;
11222;SDS011;5668;52.012;8.724;2023-03-01T15:05:51;3.77;;;3.23;;
11222;SDS011;5668;52.012;8.724;2023-03-01T15:08:20;4.90;;;3.27;;
11222;SDS011;5668;52.012;8.724;2023-03-01T15:10:59;3.43;;;3.00;;
11222;SDS011;5668;52.012;8.724;2023-03-01T15:13:29;4.20;;;3.67;;
11222;SDS011;5668;52.012;8.724;2023-03-01T15:16:02;4.33;;;3.40;;
11222;SDS011;5668;52.012;8.724;2023-03-01T15:18:34;4.87;;;3.70;;
11222;SDS011;5668;52.012;8.724;2023-03-01T15:21:06;5.50;;;4.17;;
11222;SDS011;5668;52.012;8.724;2023-03-01T15:23:35;5.80;;;3.77;;
11222;SDS011;5668;52.012;8.724;2023-03-01T15:26:04;4.83;;;3.83;;
11222;SDS011;5668;52.012;8.724;2023-03-01T15:28:33;5.43;;;3.70;;
11222;SDS011;5668;52.012;8.724;2023-03-01T15:31:04;4.13;;;3.30;;